sensor_id;sensor_type;location;lat;lon;timestamp;temperature;humidity
29201;DHT22;16244;51.956;12.980;2023-04-15T00:00:41;7.10;99.90
29201;DHT22;16244;51.956;12.980;2023-04-15T00:03:09;7.10;99.90
29201;DHT22;16244;51.956;12.980;2023-04-15T00:05:36;7.10;99.90
29201;DHT22;16244;51.956;12.980;2023-04-15T00:08:05;7.10;99.90
29201;DHT22;16244;51.956;12.980;2023-04-15T00:10:33;7.10;99.90
29201;DHT22;16244;51.956;12.980;2023-04-15T00:13:00;7.10;99.90
29201;DHT22;16244;51.956;12.980;2023-04-15T00:15:34;7.10;99.90
29201;DHT22;16244;51.956;12.980;2023-04-15T00:18:02;7.10;99.90
29201;DHT22;16244;51.956;12.980;2023-04-15T00:20:30;7.10;99.90
29201;DHT22;16244;51.956;12.980;2023-04-15T00:22:58;7.10;99.90
29201;DHT22;16244;51.956;12.980;2023-04-15T00:25:27;7.10;99.90
29201;DHT22;16244;51.956;12.980;2023-04-15T00:27:54;7.10;99.90
29201;DHT22;16244;51.956;12.980;2023-04-15T00:30:22;7.10;99.90
29201;DHT22;16244;51.956;12.980;2023-04-15T00:32:49;7.10;99.90
29201;DHT22;16244;51.956;12.980;2023-04-15T00:35:17;7.10;99.90
29201;DHT22;16244;51.956;12.980;2023-04-15T00:37:45;7.10;99.90
29201;DHT22;16244;51.956;12.980;2023-04-15T00:40:12;7.10;99.90
29201;DHT22;16244;51.956;12.980;2023-04-15T00:42:43;7.10;99.90
29201;DHT22;16244;51.956;12.980;2023-04-15T00:45:11;7.10;99.90
29201;DHT22;16244;51.956;12.980;2023-04-15T00:47:40;7.10;99.90
29201;DHT22;16244;51.956;12.980;2023-04-15T00:50:10;7.10;99.90
29201;DHT22;16244;51.956;12.980;2023-04-15T00:52:39;7.10;99.90
29201;DHT22;16244;51.956;12.980;2023-04-15T00:55:07;7.10;99.90
29201;DHT22;16244;51.956;12.980;2023-04-15T00:57:36;7.10;99.90
29201;DHT22;16244;51.956;12.980;2023-04-15T01:00:07;7.10;99.90
29201;DHT22;16244;51.956;12.980;2023-04-15T01:02:36;7.10;99.90
29201;DHT22;16244;51.956;12.980;2023-04-15T01:05:04;7.10;99.90
29201;DHT22;16244;51.956;12.980;2023-04-15T01:07:32;7.10;99.90
29201;DHT22;16244;51.956;12.980;2023-04-15T01:10:01;7.20;99.90
29201;DHT22;16244;51.956;12.980;2023-04-15T01:12:28;7.10;99.90
29201;DHT22;16244;51.956;12.980;2023-04-15T01:14:58;7.20;99.90
29201;DHT22;16244;51.956;12.980;2023-04-15T01:17:27;7.20;99.90
29201;DHT22;16244;51.956;12.980;2023-04-15T01:19:55;7.10;99.90
29201;DHT22;16244;51.956;12.980;2023-04-15T01:22:24;7.10;99.90
29201;DHT22;16244;51.956;12.980;2023-04-15T01:24:56;7.10;99.90
29201;DHT22;16244;51.956;12.980;2023-04-15T01:27:29;7.10;99.90
29201;DHT22;16244;51.956;12.980;2023-04-15T01:29:56;7.20;99.90
29201;DHT22;16244;51.956;12.980;2023-04-15T01:32:24;7.20;99.90
29201;DHT22;16244;51.956;12.980;2023-04-15T01:34:52;7.20;99.90
29201;DHT22;16244;51.956;12.980;2023-04-15T01:37:19;7.20;99.90
29201;DHT22;16244;51.956;12.980;2023-04-15T01:39:47;7.20;99.90
29201;DHT22;16244;51.956;12.980;2023-04-15T01:42:15;7.20;99.90
29201;DHT22;16244;51.956;12.980;2023-04-15T01:44:43;7.20;99.90
29201;DHT22;16244;51.956;12.980;2023-04-15T01:47:11;7.20;99.90
29201;DHT22;16244;51.956;12.980;2023-04-15T01:49:39;7.10;99.90
29201;DHT22;16244;51.956;12.980;2023-04-15T01:52:07;7.20;99.90
29201;DHT22;16244;51.956;12.980;2023-04-15T01:54:34;7.10;99.90
29201;DHT22;16244;51.956;12.980;2023-04-15T01:57:02;7.20;99.90
29201;DHT22;16244;51.956;12.980;2023-04-15T01:59:30;7.20;99.90
29201;DHT22;16244;51.956;12.980;2023-04-15T02:01:59;7.20;99.90
29201;DHT22;16244;51.956;12.980;2023-04-15T02:04:27;7.20;99.90
29201;DHT22;16244;51.956;12.980;2023-04-15T02:06:54;7.20;99.90
29201;DHT22;16244;51.956;12.980;2023-04-15T02:09:22;7.20;99.90
29201;DHT22;16244;51.956;12.980;2023-04-15T02:11:50;7.20;99.90
29201;DHT22;16244;51.956;12.980;2023-04-15T02:14:18;7.20;99.90
29201;DHT22;16244;51.956;12.980;2023-04-15T02:16:45;7.20;99.90
29201;DHT22;16244;51.956;12.980;2023-04-15T02:19:14;7.20;99.90
29201;DHT22;16244;51.956;12.980;2023-04-15T02:21:42;7.20;99.90
29201;DHT22;16244;51.956;12.980;2023-04-15T02:24:09;7.20;99.90
29201;DHT22;16244;51.956;12.980;2023-04-15T02:26:37;7.20;99.90
29201;DHT22;16244;51.956;12.980;2023-04-15T02:29:04;7.20;99.90
29201;DHT22;16244;51.956;12.980;2023-04-15T02:31:33;7.20;99.90
29201;DHT22;16244;51.956;12.980;2023-04-15T02:34:03;7.20;99.90
29201;DHT22;16244;51.956;12.980;2023-04-15T02:36:32;7.30;99.90
29201;DHT22;16244;51.956;12.980;2023-04-15T02:38:59;7.30;99.90
29201;DHT22;16244;51.956;12.980;2023-04-15T02:41:28;7.30;99.90
29201;DHT22;16244;51.956;12.980;2023-04-15T02:43:55;7.30;99.90
29201;DHT22;16244;51.956;12.980;2023-04-15T02:46:23;7.30;99.90
29201;DHT22;16244;51.956;12.980;2023-04-15T02:48:51;7.30;99.90
29201;DHT22;16244;51.956;12.980;2023-04-15T02:51:20;7.30;99.90
29201;DHT22;16244;51.956;12.980;2023-04-15T02:53:49;7.30;99.90
29201;DHT22;16244;51.956;12.980;2023-04-15T02:56:17;7.40;99.90
29201;DHT22;16244;51.956;12.980;2023-04-15T02:58:45;7.40;99.90
29201;DHT22;16244;51.956;12.980;2023-04-15T03:01:12;7.40;99.90
29201;DHT22;16244;51.956;12.980;2023-04-15T03:03:40;7.40;99.90
29201;DHT22;16244;51.956;12.980;2023-04-15T03:06:07;7.40;99.90
29201;DHT22;16244;51.956;12.980;2023-04-15T03:08:35;7.30;99.90
29201;DHT22;16244;51.956;12.980;2023-04-15T03:11:04;7.40;99.90
29201;DHT22;16244;51.956;12.980;2023-04-15T03:13:32;7.40;99.90
29201;DHT22;16244;51.956;12.980;2023-04-15T03:16:00;7.40;99.90
29201;DHT22;16244;51.956;12.980;2023-04-15T03:18:28;7.40;99.90
29201;DHT22;16244;51.956;12.980;2023-04-15T03:20:55;7.40;99.90
29201;DHT22;16244;51.956;12.980;2023-04-15T03:23:23;7.40;99.90
29201;DHT22;16244;51.956;12.980;2023-04-15T03:25:51;7.40;99.90
29201;DHT22;16244;51.956;12.980;2023-04-15T03:28:22;7.40;99.90
29201;DHT22;16244;51.956;12.980;2023-04-15T03:30:50;7.40;99.90
29201;DHT22;16244;51.956;12.980;2023-04-15T03:33:17;7.50;99.90
29201;DHT22;16244;51.956;12.980;2023-04-15T03:35:45;7.50;99.90
29201;DHT22;16244;51.956;12.980;2023-04-15T03:38:12;7.60;99.90
29201;DHT22;16244;51.956;12.980;2023-04-15T03:40:40;7.50;99.90
29201;DHT22;16244;51.956;12.980;2023-04-15T03:43:08;7.50;99.90
29201;DHT22;16244;51.956;12.980;2023-04-15T03:45:37;7.50;99.90
29201;DHT22;16244;51.956;12.980;2023-04-15T03:48:04;7.50;99.90
29201;DHT22;16244;51.956;12.980;2023-04-15T03:50:32;7.60;99.90
29201;DHT22;16244;51.956;12.980;2023-04-15T03:52:59;7.60;99.90
29201;DHT22;16244;51.956;12.980;2023-04-15T03:55:27;7.60;99.90
29201;DHT22;16244;51.956;12.980;2023-04-15T03:57:57;7.60;99.90
29201;DHT22;16244;51.956;12.980;2023-04-15T04:00:25;7.60;99.90
29201;DHT22;16244;51.956;12.980;2023-04-15T04:02:54;7.60;99.90
29201;DHT22;16244;51.956;12.980;2023-04-15T04:05:21;7.70;99.90
29201;DHT22;16244;51.956;12.980;2023-04-15T04:07:49;7.70;99.90
29201;DHT22;16244;51.956;12.980;2023-04-15T04:10:16;7.80;99.90
29201;DHT22;16244;51.956;12.980;2023-04-15T04:12:44;7.70;99.90
29201;DHT22;16244;51.956;12.980;2023-04-15T04:15:11;7.70;99.90
29201;DHT22;16244;51.956;12.980;2023-04-15T04:17:39;7.70;99.90
29201;DHT22;16244;51.956;12.980;2023-04-15T04:20:09;7.70;99.90
29201;DHT22;16244;51.956;12.980;2023-04-15T04:22:37;7.70;99.90
29201;DHT22;16244;51.956;12.980;2023-04-15T04:25:06;7.70;99.90
29201;DHT22;16244;51.956;12.980;2023-04-15T04:27:34;7.70;99.90
29201;DHT22;16244;51.956;12.980;2023-04-15T04:30:01;7.70;99.90
29201;DHT22;16244;51.956;12.980;2023-04-15T04:32:29;7.70;99.90
29201;DHT22;16244;51.956;12.980;2023-04-15T04:34:56;7.70;99.90
29201;DHT22;16244;51.956;12.980;2023-04-15T04:37:25;7.70;99.90
29201;DHT22;16244;51.956;12.980;2023-04-15T04:39:53;7.70;99.90
29201;DHT22;16244;51.956;12.980;2023-04-15T04:42:21;7.80;99.90
29201;DHT22;16244;51.956;12.980;2023-04-15T04:44:48;7.80;99.90
29201;DHT22;16244;51.956;12.980;2023-04-15T04:47:16;7.70;99.90
29201;DHT22;16244;51.956;12.980;2023-04-15T04:49:43;7.70;99.90
29201;DHT22;16244;51.956;12.980;2023-04-15T04:52:11;7.80;99.90
29201;DHT22;16244;51.956;12.980;2023-04-15T04:54:40;7.80;99.90
29201;DHT22;16244;51.956;12.980;2023-04-15T04:57:07;7.80;99.90
29201;DHT22;16244;51.956;12.980;2023-04-15T04:59:35;7.80;99.90
29201;DHT22;16244;51.956;12.980;2023-04-15T05:02:02;7.80;99.90
29201;DHT22;16244;51.956;12.980;2023-04-15T05:04:30;7.80;99.90
29201;DHT22;16244;51.956;12.980;2023-04-15T05:06:58;7.80;99.90
29201;DHT22;16244;51.956;12.980;2023-04-15T05:09:25;7.90;99.90
29201;DHT22;16244;51.956;12.980;2023-04-15T05:11:54;7.90;99.90
29201;DHT22;16244;51.956;12.980;2023-04-15T05:14:22;7.90;99.90
29201;DHT22;16244;51.956;12.980;2023-04-15T05:16:50;7.90;99.90
29201;DHT22;16244;51.956;12.980;2023-04-15T05:19:17;7.90;99.90
29201;DHT22;16244;51.956;12.980;2023-04-15T05:21:45;7.90;99.90
29201;DHT22;16244;51.956;12.980;2023-04-15T05:24:12;8.00;99.90
29201;DHT22;16244;51.956;12.980;2023-04-15T05:26:40;8.00;99.90
29201;DHT22;16244;51.956;12.980;2023-04-15T05:29:09;8.00;99.90
29201;DHT22;16244;51.956;12.980;2023-04-15T05:31:36;8.00;99.90
29201;DHT22;16244;51.956;12.980;2023-04-15T05:34:04;8.10;99.90
29201;DHT22;16244;51.956;12.980;2023-04-15T05:36:32;8.10;99.90
29201;DHT22;16244;51.956;12.980;2023-04-15T05:38:59;8.10;99.90
29201;DHT22;16244;51.956;12.980;2023-04-15T05:41:27;8.10;99.90
29201;DHT22;16244;51.956;12.980;2023-04-15T05:43:54;8.20;99.90
29201;DHT22;16244;51.956;12.980;2023-04-15T05:46:26;8.20;99.90
29201;DHT22;16244;51.956;12.980;2023-04-15T05:48:54;8.20;99.90
29201;DHT22;16244;51.956;12.980;2023-04-15T05:51:21;8.30;99.90
29201;DHT22;16244;51.956;12.980;2023-04-15T05:53:49;8.30;99.90
29201;DHT22;16244;51.956;12.980;2023-04-15T05:56:16;8.30;99.90
29201;DHT22;16244;51.956;12.980;2023-04-15T05:58:45;8.30;99.90
29201;DHT22;16244;51.956;12.980;2023-04-15T06:01:13;8.30;99.90
29201;DHT22;16244;51.956;12.980;2023-04-15T06:03:45;8.40;99.90
29201;DHT22;16244;51.956;12.980;2023-04-15T06:06:12;8.40;99.90
29201;DHT22;16244;51.956;12.980;2023-04-15T06:08:40;8.40;99.90
29201;DHT22;16244;51.956;12.980;2023-04-15T06:11:08;8.40;99.90
29201;DHT22;16244;51.956;12.980;2023-04-15T06:13:35;8.40;99.90
29201;DHT22;16244;51.956;12.980;2023-04-15T06:16:03;8.40;99.90
29201;DHT22;16244;51.956;12.980;2023-04-15T06:18:31;8.50;99.90
29201;DHT22;16244;51.956;12.980;2023-04-15T06:21:00;8.40;99.90
29201;DHT22;16244;51.956;12.980;2023-04-15T06:23:27;8.40;99.90
29201;DHT22;16244;51.956;12.980;2023-04-15T06:25:55;8.50;99.90
29201;DHT22;16244;51.956;12.980;2023-04-15T06:28:22;8.50;99.90
29201;DHT22;16244;51.956;12.980;2023-04-15T06:30:49;8.50;99.90
29201;DHT22;16244;51.956;12.980;2023-04-15T06:33:17;8.60;99.90
29201;DHT22;16244;51.956;12.980;2023-04-15T06:35:44;8.60;99.90
29201;DHT22;16244;51.956;12.980;2023-04-15T06:38:14;8.50;99.90
29201;DHT22;16244;51.956;12.980;2023-04-15T06:40:41;8.60;99.90
29201;DHT22;16244;51.956;12.980;2023-04-15T06:43:09;8.60;99.90
29201;DHT22;16244;51.956;12.980;2023-04-15T06:45:36;8.70;99.90
29201;DHT22;16244;51.956;12.980;2023-04-15T06:48:04;8.70;99.90
29201;DHT22;16244;51.956;12.980;2023-04-15T06:50:32;8.70;99.90
29201;DHT22;16244;51.956;12.980;2023-04-15T06:53:00;8.70;99.90
29201;DHT22;16244;51.956;12.980;2023-04-15T06:55:29;8.70;99.90
29201;DHT22;16244;51.956;12.980;2023-04-15T06:57:59;8.70;99.90
29201;DHT22;16244;51.956;12.980;2023-04-15T07:00:26;8.70;99.90
29201;DHT22;16244;51.956;12.980;2023-04-15T07:02:55;8.80;99.90
29201;DHT22;16244;51.956;12.980;2023-04-15T07:05:25;8.80;99.90
29201;DHT22;16244;51.956;12.980;2023-04-15T07:07:53;8.70;99.90
29201;DHT22;16244;51.956;12.980;2023-04-15T07:10:21;8.70;99.90
29201;DHT22;16244;51.956;12.980;2023-04-15T07:12:51;8.80;99.90
29201;DHT22;16244;51.956;12.980;2023-04-15T07:15:18;8.80;99.90
29201;DHT22;16244;51.956;12.980;2023-04-15T07:17:46;8.80;99.90
29201;DHT22;16244;51.956;12.980;2023-04-15T07:20:13;8.80;99.90
29201;DHT22;16244;51.956;12.980;2023-04-15T07:22:41;8.80;99.90
29201;DHT22;16244;51.956;12.980;2023-04-15T07:25:09;8.90;99.90
29201;DHT22;16244;51.956;12.980;2023-04-15T07:27:36;8.90;99.90
29201;DHT22;16244;51.956;12.980;2023-04-15T07:30:06;8.90;99.90
29201;DHT22;16244;51.956;12.980;2023-04-15T07:32:34;8.90;99.90
29201;DHT22;16244;51.956;12.980;2023-04-15T07:35:02;8.90;99.90
29201;DHT22;16244;51.956;12.980;2023-04-15T07:37:30;8.90;99.90
29201;DHT22;16244;51.956;12.980;2023-04-15T07:39:58;8.90;99.90
29201;DHT22;16244;51.956;12.980;2023-04-15T07:42:25;8.90;99.90
29201;DHT22;16244;51.956;12.980;2023-04-15T07:44:52;8.90;99.90
29201;DHT22;16244;51.956;12.980;2023-04-15T07:47:21;8.90;99.90
29201;DHT22;16244;51.956;12.980;2023-04-15T07:49:49;9.00;99.90
29201;DHT22;16244;51.956;12.980;2023-04-15T07:52:17;9.00;99.90
29201;DHT22;16244;51.956;12.980;2023-04-15T07:54:45;9.00;99.90
29201;DHT22;16244;51.956;12.980;2023-04-15T07:57:12;9.00;99.90
29201;DHT22;16244;51.956;12.980;2023-04-15T07:59:40;9.00;99.90
29201;DHT22;16244;51.956;12.980;2023-04-15T08:02:08;9.00;99.90
29201;DHT22;16244;51.956;12.980;2023-04-15T08:04:37;9.00;99.90
29201;DHT22;16244;51.956;12.980;2023-04-15T08:07:04;9.00;99.90
29201;DHT22;16244;51.956;12.980;2023-04-15T08:09:32;9.00;99.90
29201;DHT22;16244;51.956;12.980;2023-04-15T08:11:59;9.10;99.90
29201;DHT22;16244;51.956;12.980;2023-04-15T08:14:28;9.10;99.90
29201;DHT22;16244;51.956;12.980;2023-04-15T08:16:55;9.10;99.90
29201;DHT22;16244;51.956;12.980;2023-04-15T08:19:42;9.10;99.90
29201;DHT22;16244;51.956;12.980;2023-04-15T08:22:09;9.10;99.90
29201;DHT22;16244;51.956;12.980;2023-04-15T08:24:38;9.10;99.90
29201;DHT22;16244;51.956;12.980;2023-04-15T08:27:05;9.10;99.90
29201;DHT22;16244;51.956;12.980;2023-04-15T08:29:33;9.20;99.90
29201;DHT22;16244;51.956;12.980;2023-04-15T08:32:01;9.20;99.90
29201;DHT22;16244;51.956;12.980;2023-04-15T08:34:29;9.30;99.90
29201;DHT22;16244;51.956;12.980;2023-04-15T08:36:58;9.30;99.90
29201;DHT22;16244;51.956;12.980;2023-04-15T08:39:26;9.30;99.90
29201;DHT22;16244;51.956;12.980;2023-04-15T08:41:59;9.30;99.90
29201;DHT22;16244;51.956;12.980;2023-04-15T08:44:28;9.30;99.90
29201;DHT22;16244;51.956;12.980;2023-04-15T08:47:00;9.30;99.90
29201;DHT22;16244;51.956;12.980;2023-04-15T08:49:29;9.30;99.90
29201;DHT22;16244;51.956;12.980;2023-04-15T08:51:58;9.20;99.90
29201;DHT22;16244;51.956;12.980;2023-04-15T08:54:26;9.30;99.90
29201;DHT22;16244;51.956;12.980;2023-04-15T08:56:56;9.30;99.90
29201;DHT22;16244;51.956;12.980;2023-04-15T08:59:23;9.20;99.90
29201;DHT22;16244;51.956;12.980;2023-04-15T09:01:51;9.20;99.90
29201;DHT22;16244;51.956;12.980;2023-04-15T09:04:20;9.20;99.90
29201;DHT22;16244;51.956;12.980;2023-04-15T09:06:48;9.20;99.90
29201;DHT22;16244;51.956;12.980;2023-04-15T09:09:18;9.20;99.90
29201;DHT22;16244;51.956;12.980;2023-04-15T09:11:46;9.20;99.90
29201;DHT22;16244;51.956;12.980;2023-04-15T09:14:15;9.20;99.90
29201;DHT22;16244;51.956;12.980;2023-04-15T09:16:55;9.20;99.90
29201;DHT22;16244;51.956;12.980;2023-04-15T09:19:24;9.20;99.90
29201;DHT22;16244;51.956;12.980;2023-04-15T09:21:53;9.20;99.90
29201;DHT22;16244;51.956;12.980;2023-04-15T09:24:23;9.20;99.90
29201;DHT22;16244;51.956;12.980;2023-04-15T09:26:53;9.20;99.90
29201;DHT22;16244;51.956;12.980;2023-04-15T09:29:23;9.20;99.90
29201;DHT22;16244;51.956;12.980;2023-04-15T09:31:52;9.20;99.90
29201;DHT22;16244;51.956;12.980;2023-04-15T09:34:19;9.20;99.90
29201;DHT22;16244;51.956;12.980;2023-04-15T09:36:55;9.20;99.90
29201;DHT22;16244;51.956;12.980;2023-04-15T09:39:24;9.20;99.90
29201;DHT22;16244;51.956;12.980;2023-04-15T09:42:04;9.20;99.90
29201;DHT22;16244;51.956;12.980;2023-04-15T09:44:33;9.20;99.90
29201;DHT22;16244;51.956;12.980;2023-04-15T09:47:01;9.20;99.90
29201;DHT22;16244;51.956;12.980;2023-04-15T09:49:31;9.20;99.90
29201;DHT22;16244;51.956;12.980;2023-04-15T09:51:59;9.20;99.90
29201;DHT22;16244;51.956;12.980;2023-04-15T09:54:34;9.30;99.90
29201;DHT22;16244;51.956;12.980;2023-04-15T09:57:06;9.20;99.90
29201;DHT22;16244;51.956;12.980;2023-04-15T09:59:33;9.20;99.90
29201;DHT22;16244;51.956;12.980;2023-04-15T10:02:03;9.20;99.90
29201;DHT22;16244;51.956;12.980;2023-04-15T10:04:35;9.20;99.90
29201;DHT22;16244;51.956;12.980;2023-04-15T10:07:04;9.20;99.90
29201;DHT22;16244;51.956;12.980;2023-04-15T10:09:34;9.10;99.90
29201;DHT22;16244;51.956;12.980;2023-04-15T10:12:02;9.10;99.90
29201;DHT22;16244;51.956;12.980;2023-04-15T10:14:33;9.20;99.90
29201;DHT22;16244;51.956;12.980;2023-04-15T10:17:03;9.20;99.90
29201;DHT22;16244;51.956;12.980;2023-04-15T10:19:33;9.10;99.90
29201;DHT22;16244;51.956;12.980;2023-04-15T10:22:03;9.10;99.90
29201;DHT22;16244;51.956;12.980;2023-04-15T10:24:30;9.10;99.90
29201;DHT22;16244;51.956;12.980;2023-04-15T10:27:00;9.10;99.90
29201;DHT22;16244;51.956;12.980;2023-04-15T10:29:29;9.10;99.90
29201;DHT22;16244;51.956;12.980;2023-04-15T10:31:58;9.20;99.90
29201;DHT22;16244;51.956;12.980;2023-04-15T10:34:26;9.20;99.90
29201;DHT22;16244;51.956;12.980;2023-04-15T10:36:54;9.20;99.90
29201;DHT22;16244;51.956;12.980;2023-04-15T10:39:41;9.20;99.90
29201;DHT22;16244;51.956;12.980;2023-04-15T10:42:12;9.30;99.90
29201;DHT22;16244;51.956;12.980;2023-04-15T10:44:42;9.30;99.90
29201;DHT22;16244;51.956;12.980;2023-04-15T10:47:11;9.30;99.90
29201;DHT22;16244;51.956;12.980;2023-04-15T10:49:46;9.40;99.90
29201;DHT22;16244;51.956;12.980;2023-04-15T10:52:16;9.50;99.90
29201;DHT22;16244;51.956;12.980;2023-04-15T10:54:44;9.50;99.90
29201;DHT22;16244;51.956;12.980;2023-04-15T10:57:22;9.60;99.90
29201;DHT22;16244;51.956;12.980;2023-04-15T11:00:11;9.60;99.90
29201;DHT22;16244;51.956;12.980;2023-04-15T11:02:41;9.70;99.90
29201;DHT22;16244;51.956;12.980;2023-04-15T11:05:09;9.70;99.90
29201;DHT22;16244;51.956;12.980;2023-04-15T11:07:46;9.70;99.90
29201;DHT22;16244;51.956;12.980;2023-04-15T11:10:49;9.70;99.90
29201;DHT22;16244;51.956;12.980;2023-04-15T11:13:20;9.70;99.90
29201;DHT22;16244;51.956;12.980;2023-04-15T11:15:49;9.70;99.90
29201;DHT22;16244;51.956;12.980;2023-04-15T11:18:18;9.60;99.90
29201;DHT22;16244;51.956;12.980;2023-04-15T11:20:47;9.60;99.90
29201;DHT22;16244;51.956;12.980;2023-04-15T11:23:17;9.60;99.90
29201;DHT22;16244;51.956;12.980;2023-04-15T11:25:45;9.50;99.90
29201;DHT22;16244;51.956;12.980;2023-04-15T11:28:13;9.60;99.90
29201;DHT22;16244;51.956;12.980;2023-04-15T11:30:42;9.60;99.90
29201;DHT22;16244;51.956;12.980;2023-04-15T11:33:11;9.50;99.90
29201;DHT22;16244;51.956;12.980;2023-04-15T11:35:42;9.50;99.90
29201;DHT22;16244;51.956;12.980;2023-04-15T11:38:11;9.50;99.90
29201;DHT22;16244;51.956;12.980;2023-04-15T11:40:41;9.50;99.90
29201;DHT22;16244;51.956;12.980;2023-04-15T11:43:10;9.50;99.90
29201;DHT22;16244;51.956;12.980;2023-04-15T11:45:52;9.50;99.90
29201;DHT22;16244;51.956;12.980;2023-04-15T11:48:22;9.60;99.90
29201;DHT22;16244;51.956;12.980;2023-04-15T11:50:54;9.50;99.90
29201;DHT22;16244;51.956;12.980;2023-04-15T11:53:23;9.50;99.90
29201;DHT22;16244;51.956;12.980;2023-04-15T11:55:52;9.50;99.90
29201;DHT22;16244;51.956;12.980;2023-04-15T11:58:22;9.50;99.90
29201;DHT22;16244;51.956;12.980;2023-04-15T12:00:53;9.50;99.90
29201;DHT22;16244;51.956;12.980;2023-04-15T12:03:26;9.50;99.90
29201;DHT22;16244;51.956;12.980;2023-04-15T12:06:11;9.50;99.90
29201;DHT22;16244;51.956;12.980;2023-04-15T12:09:00;9.50;99.90
29201;DHT22;16244;51.956;12.980;2023-04-15T12:11:33;9.50;99.90
29201;DHT22;16244;51.956;12.980;2023-04-15T12:14:07;9.50;99.90
29201;DHT22;16244;51.956;12.980;2023-04-15T12:16:38;9.60;99.90
29201;DHT22;16244;51.956;12.980;2023-04-15T12:19:08;9.60;99.90
29201;DHT22;16244;51.956;12.980;2023-04-15T12:21:38;9.50;99.90
29201;DHT22;16244;51.956;12.980;2023-04-15T12:24:09;9.50;99.90
29201;DHT22;16244;51.956;12.980;2023-04-15T12:26:44;9.60;99.90
29201;DHT22;16244;51.956;12.980;2023-04-15T12:29:13;9.60;99.90
29201;DHT22;16244;51.956;12.980;2023-04-15T12:31:50;9.60;99.90
29201;DHT22;16244;51.956;12.980;2023-04-15T12:34:25;9.70;99.90
29201;DHT22;16244;51.956;12.980;2023-04-15T12:36:54;9.80;99.90
29201;DHT22;16244;51.956;12.980;2023-04-15T12:39:22;9.70;99.90
29201;DHT22;16244;51.956;12.980;2023-04-15T12:41:50;9.80;99.90
29201;DHT22;16244;51.956;12.980;2023-04-15T12:44:18;9.90;99.90
29201;DHT22;16244;51.956;12.980;2023-04-15T12:46:46;10.00;99.90
29201;DHT22;16244;51.956;12.980;2023-04-15T12:49:15;10.00;99.90
29201;DHT22;16244;51.956;12.980;2023-04-15T12:51:47;10.00;99.90
29201;DHT22;16244;51.956;12.980;2023-04-15T12:54:20;10.00;99.90
29201;DHT22;16244;51.956;12.980;2023-04-15T12:56:49;10.00;99.90
29201;DHT22;16244;51.956;12.980;2023-04-15T12:59:16;10.00;99.90
29201;DHT22;16244;51.956;12.980;2023-04-15T13:01:44;10.00;99.90
29201;DHT22;16244;51.956;12.980;2023-04-15T13:04:13;10.00;99.90
29201;DHT22;16244;51.956;12.980;2023-04-15T13:06:42;10.00;99.90
29201;DHT22;16244;51.956;12.980;2023-04-15T13:09:09;10.00;99.90
29201;DHT22;16244;51.956;12.980;2023-04-15T13:11:37;10.00;99.90
29201;DHT22;16244;51.956;12.980;2023-04-15T13:14:07;10.00;99.90
29201;DHT22;16244;51.956;12.980;2023-04-15T13:16:35;10.00;99.90
29201;DHT22;16244;51.956;12.980;2023-04-15T13:19:03;10.00;99.90
29201;DHT22;16244;51.956;12.980;2023-04-15T13:21:31;10.10;99.90
29201;DHT22;16244;51.956;12.980;2023-04-15T13:24:02;10.20;99.90
29201;DHT22;16244;51.956;12.980;2023-04-15T13:26:30;10.20;99.90
29201;DHT22;16244;51.956;12.980;2023-04-15T13:28:57;10.30;99.90
29201;DHT22;16244;51.956;12.980;2023-04-15T13:31:25;10.30;99.90
29201;DHT22;16244;51.956;12.980;2023-04-15T13:33:52;10.40;99.90
29201;DHT22;16244;51.956;12.980;2023-04-15T13:36:20;10.40;99.90
29201;DHT22;16244;51.956;12.980;2023-04-15T13:38:48;10.40;99.90
29201;DHT22;16244;51.956;12.980;2023-04-15T13:41:17;10.30;99.90
29201;DHT22;16244;51.956;12.980;2023-04-15T13:43:45;10.30;99.90
29201;DHT22;16244;51.956;12.980;2023-04-15T13:46:13;10.40;99.90
29201;DHT22;16244;51.956;12.980;2023-04-15T13:48:40;10.30;99.90
29201;DHT22;16244;51.956;12.980;2023-04-15T13:51:08;10.30;99.90
29201;DHT22;16244;51.956;12.980;2023-04-15T13:53:35;10.30;99.90
29201;DHT22;16244;51.956;12.980;2023-04-15T13:56:03;10.30;99.90
29201;DHT22;16244;51.956;12.980;2023-04-15T13:58:32;10.30;99.90
29201;DHT22;16244;51.956;12.980;2023-04-15T14:01:00;10.20;99.90
29201;DHT22;16244;51.956;12.980;2023-04-15T14:03:27;10.20;99.90
29201;DHT22;16244;51.956;12.980;2023-04-15T14:05:55;10.30;99.90
29201;DHT22;16244;51.956;12.980;2023-04-15T14:08:24;10.20;99.90
29201;DHT22;16244;51.956;12.980;2023-04-15T14:10:51;10.10;99.90
29201;DHT22;16244;51.956;12.980;2023-04-15T14:13:19;10.10;99.90
29201;DHT22;16244;51.956;12.980;2023-04-15T14:15:48;10.20;99.90
29201;DHT22;16244;51.956;12.980;2023-04-15T14:18:15;10.20;99.90
29201;DHT22;16244;51.956;12.980;2023-04-15T14:20:43;10.30;99.90
29201;DHT22;16244;51.956;12.980;2023-04-15T14:23:10;10.30;99.90
29201;DHT22;16244;51.956;12.980;2023-04-15T14:25:38;10.20;99.90
29201;DHT22;16244;51.956;12.980;2023-04-15T14:28:05;10.10;99.90
29201;DHT22;16244;51.956;12.980;2023-04-15T14:30:33;10.20;99.90
29201;DHT22;16244;51.956;12.980;2023-04-15T14:33:02;10.20;99.90
29201;DHT22;16244;51.956;12.980;2023-04-15T14:35:30;10.30;99.90
29201;DHT22;16244;51.956;12.980;2023-04-15T14:37:57;10.20;99.90
29201;DHT22;16244;51.956;12.980;2023-04-15T14:40:25;10.30;99.90
29201;DHT22;16244;51.956;12.980;2023-04-15T14:42:53;10.20;99.90
29201;DHT22;16244;51.956;12.980;2023-04-15T14:45:20;10.20;99.90
29201;DHT22;16244;51.956;12.980;2023-04-15T14:47:48;10.20;99.90
29201;DHT22;16244;51.956;12.980;2023-04-15T14:50:17;10.10;99.90
29201;DHT22;16244;51.956;12.980;2023-04-15T14:52:44;10.20;99.90
29201;DHT22;16244;51.956;12.980;2023-04-15T14:55:12;10.10;99.90
29201;DHT22;16244;51.956;12.980;2023-04-15T14:57:41;10.20;99.90
29201;DHT22;16244;51.956;12.980;2023-04-15T15:00:10;10.10;99.90
29201;DHT22;16244;51.956;12.980;2023-04-15T15:02:38;10.10;99.90
29201;DHT22;16244;51.956;12.980;2023-04-15T15:05:08;10.10;99.90
29201;DHT22;16244;51.956;12.980;2023-04-15T15:07:38;10.10;99.90
29201;DHT22;16244;51.956;12.980;2023-04-15T15:10:07;10.10;99.90
29201;DHT22;16244;51.956;12.980;2023-04-15T15:12:35;10.10;99.90
29201;DHT22;16244;51.956;12.980;2023-04-15T15:15:03;10.20;99.90
29201;DHT22;16244;51.956;12.980;2023-04-15T15:17:31;10.10;99.90
29201;DHT22;16244;51.956;12.980;2023-04-15T15:19:58;10.20;99.90
29201;DHT22;16244;51.956;12.980;2023-04-15T15:22:26;10.20;99.90
29201;DHT22;16244;51.956;12.980;2023-04-15T15:24:55;10.10;99.90
29201;DHT22;16244;51.956;12.980;2023-04-15T15:27:24;10.10;99.90
29201;DHT22;16244;51.956;12.980;2023-04-15T15:29:52;10.10;99.90
29201;DHT22;16244;51.956;12.980;2023-04-15T15:32:19;10.20;99.90
29201;DHT22;16244;51.956;12.980;2023-04-15T15:34:47;10.10;99.90
29201;DHT22;16244;51.956;12.980;2023-04-15T15:37:15;10.20;99.90